createdAt,value
2022-10-29T00:02:17.575Z,101711.91
2022-10-29T00:12:22.180Z,101727.72
2022-10-29T00:22:25.240Z,101733.84
2022-10-29T00:32:29.689Z,101728.59
2022-10-29T00:42:32.811Z,101714.56
2022-10-29T00:52:43.716Z,101709.31
2022-10-29T01:02:46.849Z,101699.62
2022-10-29T01:13:03.234Z,101691.78
2022-10-29T01:23:16.494Z,101675.97
2022-10-29T01:33:24.239Z,101660.16
2022-10-29T01:43:30.689Z,101658.41
2022-10-29T01:53:37.675Z,101655.78
2022-10-29T02:03:47.253Z,101650.63
2022-10-29T02:13:57.687Z,101641.81
2022-10-29T02:24:00.866Z,101636.47
2022-10-29T02:34:05.358Z,101638.19
2022-10-29T02:44:08.519Z,101642.59
2022-10-29T02:54:12.993Z,101639.97
2022-10-29T03:04:16.167Z,101648.78
2022-10-29T03:14:20.970Z,101638.25
2022-10-29T03:24:24.010Z,101625.91
2022-10-29T03:34:28.503Z,101614.53
2022-10-29T03:44:31.758Z,101620.69
2022-10-29T03:54:36.247Z,101621.53
2022-10-29T04:04:39.391Z,101621.56
2022-10-29T04:14:45.952Z,101626.81
2022-10-29T04:27:01.681Z,101622.47
2022-10-29T04:35:13.669Z,101618.91
2022-10-29T04:45:16.895Z,101623.34
2022-10-29T04:55:21.300Z,101619.81
2022-10-29T05:05:24.781Z,101618.94
2022-10-29T05:15:30.299Z,101624.22
2022-10-29T05:25:37.777Z,101624.19
2022-10-29T05:35:42.328Z,101621.56
2022-10-29T05:45:45.802Z,101630.34
2022-10-29T05:55:50.192Z,101613.69
2022-10-29T06:05:53.324Z,101609.25
2022-10-29T06:16:00.516Z,101606.66
2022-10-29T06:26:04.452Z,101628.53
2022-10-29T06:36:09.711Z,101626.78
2022-10-29T06:46:12.845Z,101617.13
2022-10-29T06:56:17.392Z,101613.63
2022-10-29T07:06:20.642Z,101619.75
2022-10-29T07:16:25.504Z,101640.84
2022-10-29T07:26:28.666Z,101656.63
2022-10-29T07:36:33.421Z,101640.75
2022-10-29T07:46:36.699Z,101631.13
2022-10-29T07:56:43.737Z,101642.53
2022-10-29T08:06:50.127Z,101641.72
2022-10-29T08:16:55.716Z,101639.06
2022-10-29T08:26:58.788Z,101643.44
2022-10-29T08:37:03.374Z,101642.53
2022-10-29T08:47:10.765Z,101626.78
2022-10-29T08:57:17.614Z,101646.91
2022-10-29T09:07:38.925Z,101626.78
2022-10-29T09:17:47.819Z,101635.47
2022-10-29T09:28:01.585Z,101632.78
2022-10-29T09:38:09.243Z,101638.09
2022-10-29T09:48:18.592Z,101624.19
2022-10-29T09:58:25.278Z,101631.97
2022-10-29T10:08:28.857Z,101619.53
2022-10-29T10:28:45.362Z,101591.44
2022-10-29T10:38:51.675Z,101594.97
2022-10-29T10:48:59.550Z,101585.25
2022-10-29T10:59:06.909Z,101583.28
2022-10-29T11:09:17.258Z,101575.16
2022-10-29T11:19:26.182Z,101557.56
2022-10-29T11:29:40.243Z,101547.91
2022-10-29T11:39:49.182Z,101542.94
2022-10-29T11:50:05.685Z,101548.44
2022-10-29T12:00:14.815Z,101531.19
2022-10-29T12:10:28.860Z,101506.50
2022-10-29T12:20:38.568Z,101493.75
2022-10-29T12:30:48.765Z,101482.41
2022-10-29T12:40:57.716Z,101464.41
2022-10-29T12:51:06.852Z,101461.22
2022-10-29T13:02:09.751Z,101458.84
2022-10-29T13:12:10.907Z,101462.81
2022-10-29T13:22:50.532Z,101458.13
2022-10-29T13:32:54.005Z,101457.53
2022-10-29T13:43:03.725Z,101452.28
2022-10-29T13:53:13.216Z,101450.53
2022-10-29T14:03:21.864Z,101436.03
2022-10-29T14:13:32.435Z,101437.78
2022-10-29T14:23:40.899Z,101433.28
2022-10-29T14:33:45.157Z,101441.94
2022-10-29T14:43:55.304Z,101441.22
2022-10-29T14:54:01.089Z,101437.16
2022-10-29T15:04:05.876Z,101435.25
2022-10-29T15:24:36.913Z,101408.12
2022-10-29T15:34:40.443Z,101418.03
2022-10-29T15:45:07.305Z,101398.72
2022-10-29T15:55:16.118Z,101414.72
2022-10-29T16:05:20.698Z,101439.16
2022-10-29T16:15:24.910Z,101422.44
2022-10-29T16:25:29.796Z,101418.25
2022-10-29T16:35:32.902Z,101413.78
2022-10-29T16:45:37.518Z,101405.91
2022-10-29T16:55:41.568Z,101409.41
2022-10-29T17:05:47.337Z,101415.56
2022-10-29T17:15:50.475Z,101421.72
2022-10-29T17:25:56.034Z,101400.69
2022-10-29T17:36:03.564Z,101404.22
2022-10-29T17:46:08.432Z,101405.91
2022-10-29T17:56:12.177Z,101400.66
2022-10-29T18:06:16.896Z,101398.06
2022-10-29T18:16:21.945Z,101405.97
2022-10-29T18:26:28.702Z,101404.22
2022-10-29T18:36:31.869Z,101410.34
2022-10-29T18:46:36.499Z,101402.44
2022-10-29T18:56:40.154Z,101399.91
2022-10-29T19:06:44.679Z,101377.13
2022-10-29T19:16:47.811Z,101380.56
2022-10-29T19:26:52.306Z,101373.50
2022-10-29T19:36:55.469Z,101379.75
2022-10-29T19:46:59.974Z,101371.00
2022-10-29T19:57:03.104Z,101351.69
2022-10-29T20:07:07.900Z,101350.69
2022-10-29T20:17:11.329Z,101354.34
2022-10-29T20:27:15.889Z,101351.72
2022-10-29T20:37:19.410Z,101341.19
2022-10-29T20:47:24.042Z,101352.63
2022-10-29T20:57:27.158Z,101355.25
2022-10-29T21:07:31.786Z,101363.13
2022-10-29T21:17:35.201Z,101371.06
2022-10-29T21:27:39.657Z,101371.97
2022-10-29T21:37:42.758Z,101370.13
2022-10-29T21:47:48.157Z,101370.16
2022-10-29T21:57:51.359Z,101359.63
2022-10-29T22:07:58.084Z,101354.41
2022-10-29T22:18:02.552Z,101348.19
2022-10-29T22:28:07.243Z,101344.03
2022-10-29T22:38:10.413Z,101329.09
2022-10-29T22:48:15.055Z,101322.84
2022-10-29T22:58:18.183Z,101313.19
2022-10-29T23:08:22.744Z,101311.47
2022-10-29T23:18:26.098Z,101312.38
2022-10-29T23:28:31.381Z,101306.19
2022-10-29T23:38:35.586Z,101303.66
2022-10-29T23:48:40.104Z,101298.34
2022-10-29T23:58:43.328Z,101286.12
